Time;durP1;ratioP1;P1;durP2;ratioP2;P2;SDS_P1;SDS_P2;PMS_P1;PMS_P2;Temp;Humidity;BMP_temperature;BMP_pressure;BME280_temperature;BME280_humidity;BME280_pressure;Samples;Min_cycle;Max_cycle;Signal;HPM_P1;HPM_P2
2023/10/01 00:00:26;;;;;;;10.10;4.20;;;15.80;99.90;;;;;;5027114;28;20084;-59
2023/10/01 00:02:52;;;;;;;12.65;4.38;;;15.90;99.90;;;;;;5021556;28;20360;-58
2023/10/01 00:05:22;;;;;;;12.20;4.43;;;15.80;99.90;;;;;;5022611;28;20393;-58
2023/10/01 00:07:49;;;;;;;19.05;6.07;;;15.80;99.90;;;;;;5017015;28;20147;-59
2023/10/01 00:10:15;;;;;;;10.32;3.83;;;15.90;99.90;;;;;;5003453;28;20045;-59
2023/10/01 00:12:46;;;;;;;10.52;3.80;;;15.80;99.90;;;;;;5017445;28;20049;-59
2023/10/01 00:15:18;;;;;;;9.45;3.72;;;15.90;99.90;;;;;;5024686;28;21527;-60
2023/10/01 00:17:44;;;;;;;14.55;4.60;;;15.90;99.90;;;;;;5020981;28;20559;-59
2023/10/01 00:22:40;;;;;;;12.98;4.10;;;15.90;99.90;;;;;;5003704;28;20118;-58
2023/10/01 00:25:07;;;;;;;13.27;5.20;;;15.90;99.90;;;;;;5021250;28;20044;-61
2023/10/01 00:27:32;;;;;;;15.13;4.70;;;15.90;99.90;;;;;;5019964;28;22261;-59
2023/10/01 00:29:58;;;;;;;15.35;4.85;;;15.90;99.90;;;;;;5023106;28;20076;-58
2023/10/01 00:32:24;;;;;;;17.90;5.05;;;15.90;99.90;;;;;;5021968;28;20122;-58
2023/10/01 00:34:50;;;;;;;9.88;4.70;;;15.80;99.90;;;;;;5020719;28;20068;-59
2023/10/01 00:37:16;;;;;;;10.95;4.65;;;15.80;99.90;;;;;;4999989;28;20329;-58
2023/10/01 00:39:43;;;;;;;11.98;4.88;;;15.80;99.90;;;;;;5018180;28;20037;-58
2023/10/01 00:42:09;;;;;;;8.60;4.22;;;15.80;99.90;;;;;;5002266;28;20393;-58
2023/10/01 00:44:35;;;;;;;16.33;4.70;;;15.80;99.90;;;;;;5021934;28;20044;-58
2023/10/01 00:47:04;;;;;;;14.43;5.38;;;15.80;99.90;;;;;;5017827;28;20071;-58
2023/10/01 00:49:36;;;;;;;13.90;5.40;;;15.80;99.90;;;;;;5003205;28;20557;-58
2023/10/01 00:52:02;;;;;;;12.10;4.93;;;15.80;99.90;;;;;;5021961;28;20029;-58
2023/10/01 00:54:29;;;;;;;14.35;6.03;;;15.80;99.90;;;;;;5031461;28;20049;-59
2023/10/01 00:56:56;;;;;;;18.80;5.38;;;15.80;99.90;;;;;;5026447;28;20542;-59
2023/10/01 00:59:22;;;;;;;16.70;5.13;;;15.80;99.90;;;;;;4997917;28;20041;-59
2023/10/01 01:01:48;;;;;;;10.85;4.90;;;15.80;99.90;;;;;;5025800;28;20044;-59
2023/10/01 01:04:21;;;;;;;18.25;5.35;;;15.80;99.90;;;;;;5007978;28;20041;-58
2023/10/01 01:06:49;;;;;;;9.90;5.32;;;15.80;99.90;;;;;;5026025;28;20049;-58
2023/10/01 01:09:16;;;;;;;11.52;4.80;;;15.80;99.90;;;;;;5028871;28;20130;-58
2023/10/01 01:11:46;;;;;;;13.02;5.00;;;15.80;99.90;;;;;;5026191;28;20079;-59
2023/10/01 01:14:11;;;;;;;16.33;6.45;;;15.70;99.90;;;;;;5007124;28;20664;-58
2023/10/01 01:16:38;;;;;;;15.32;6.03;;;15.80;99.90;;;;;;5008585;28;20041;-58
2023/10/01 01:19:04;;;;;;;9.88;5.38;;;15.70;99.90;;;;;;5020842;28;20393;-58
2023/10/01 01:21:31;;;;;;;11.52;5.82;;;15.70;99.90;;;;;;5023954;28;20568;-58
2023/10/01 01:23:57;;;;;;;18.98;6.00;;;15.70;99.90;;;;;;4993274;28;20056;-58
2023/10/01 01:26:23;;;;;;;16.27;6.45;;;15.70;99.90;;;;;;5022312;28;20500;-59
2023/10/01 01:28:49;;;;;;;14.10;6.05;;;15.70;99.90;;;;;;4992008;28;20040;-59
2023/10/01 01:31:17;;;;;;;17.10;6.47;;;15.70;99.90;;;;;;5024798;28;20326;-59
2023/10/01 01:33:52;;;;;;;14.27;6.45;;;15.70;99.90;;;;;;5015282;28;20152;-59
2023/10/01 01:36:19;;;;;;;11.35;6.30;;;15.70;99.90;;;;;;5019819;28;20579;-59
2023/10/01 01:39:26;;;;;;;14.73;6.30;;;15.70;99.90;;;;;;5020667;28;20120;-59
2023/10/01 01:41:55;;;;;;;15.60;7.00;;;15.70;99.90;;;;;;5020927;28;20060;-60
2023/10/01 01:44:20;;;;;;;17.42;6.93;;;15.70;99.90;;;;;;5005696;28;20582;-59
2023/10/01 01:46:49;;;;;;;17.40;7.30;;;15.70;99.90;;;;;;5025621;28;20045;-59
2023/10/01 01:49:19;;;;;;;15.82;7.28;;;15.70;99.90;;;;;;5020496;28;20068;-58
2023/10/01 01:51:59;;;;;;;15.90;7.95;;;15.70;99.90;;;;;;5021071;28;20144;-58
2023/10/01 01:54:27;;;;;;;15.52;6.97;;;15.60;99.90;;;;;;5010616;28;20037;-58
2023/10/01 01:56:55;;;;;;;19.30;7.88;;;15.60;99.90;;;;;;5022554;28;20041;-58
2023/10/01 01:59:27;;;;;;;17.92;8.00;;;15.60;99.90;;;;;;5006849;28;20041;-57
2023/10/01 02:01:55;;;;;;;14.88;7.72;;;15.60;99.90;;;;;;5021721;28;20056;-57
2023/10/01 02:04:24;;;;;;;16.50;9.20;;;15.60;99.90;;;;;;5022980;28;20061;-59
2023/10/01 02:06:54;;;;;;;15.30;8.48;;;15.60;99.90;;;;;;5021911;28;21327;-58
2023/10/01 02:09:20;;;;;;;18.85;9.82;;;15.60;99.90;;;;;;5020281;28;20075;-58
2023/10/01 02:11:49;;;;;;;21.23;9.55;;;15.60;99.90;;;;;;5027297;28;20074;-58
2023/10/01 02:14:33;;;;;;;17.90;9.20;;;15.60;99.90;;;;;;5019603;28;20421;-58
2023/10/01 02:17:13;;;;;;;;;;;15.60;99.90;;;;;;5018887;28;20527;-58
2023/10/01 02:19:40;;;;;;;20.75;10.00;;;15.60;99.90;;;;;;5007686;28;19982;-58
2023/10/01 02:22:08;;;;;;;15.30;9.80;;;15.50;99.90;;;;;;5023279;28;20043;-58
2023/10/01 02:24:38;;;;;;;17.63;9.80;;;15.50;99.90;;;;;;5023235;28;20054;-58
2023/10/01 02:27:04;;;;;;;14.63;9.35;;;15.50;99.90;;;;;;5010655;28;20029;-59
2023/10/01 02:29:45;;;;;;;20.95;10.00;;;15.50;99.90;;;;;;5024708;28;20045;-58
2023/10/01 02:32:14;;;;;;;20.50;10.10;;;15.50;99.90;;;;;;5021684;28;20049;-58
2023/10/01 02:34:42;;;;;;;20.30;10.52;;;15.50;99.90;;;;;;5017924;28;20587;-58
2023/10/01 02:37:09;;;;;;;17.75;10.80;;;15.50;99.90;;;;;;5003456;28;20404;-58
2023/10/01 02:39:37;;;;;;;20.63;10.88;;;15.50;99.90;;;;;;5027708;28;20052;-58
2023/10/01 02:44:38;;;;;;;18.42;10.70;;;15.50;99.90;;;;;;5025837;28;20045;-58
2023/10/01 02:47:26;;;;;;;16.77;10.02;;;15.50;99.90;;;;;;5023358;28;20045;-58
2023/10/01 02:49:54;;;;;;;22.60;11.25;;;15.50;99.90;;;;;;5020189;28;20496;-58
2023/10/01 02:52:36;;;;;;;20.90;12.30;;;15.50;99.90;;;;;;5024096;28;20029;-58
2023/10/01 02:55:16;;;;;;;17.48;10.82;;;15.50;99.90;;;;;;5021463;28;20045;-59
2023/10/01 02:57:42;;;;;;;19.13;10.90;;;15.50;99.90;;;;;;5021275;28;20036;-58
2023/10/01 03:02:44;;;;;;;20.33;12.32;;;15.50;99.90;;;;;;5021858;28;20048;-57
2023/10/01 03:05:23;;;;;;;22.98;11.57;;;15.50;99.90;;;;;;5002178;28;20081;-58
2023/10/01 03:07:51;;;;;;;18.02;11.73;;;15.50;99.90;;;;;;5027849;28;20056;-58
2023/10/01 03:10:26;;;;;;;21.73;11.98;;;15.50;99.90;;;;;;5008882;28;20056;-58
2023/10/01 03:12:56;;;;;;;20.73;11.10;;;15.50;99.90;;;;;;5023867;28;20040;-58
2023/10/01 03:15:28;;;;;;;18.77;10.75;;;15.50;99.90;;;;;;5018197;28;20048;-59
2023/10/01 03:17:58;;;;;;;19.02;11.88;;;15.50;99.90;;;;;;5010430;28;20124;-59
2023/10/01 03:23:05;;;;;;;22.52;12.05;;;15.40;99.90;;;;;;5018558;28;20053;-58
2023/10/01 03:25:41;;;;;;;19.02;12.10;;;15.50;99.90;;;;;;5028212;28;20070;-58
2023/10/01 03:28:26;;;;;;;20.58;11.45;;;15.50;99.90;;;;;;5020997;28;20062;-58
2023/10/01 03:31:09;;;;;;;23.90;12.40;;;15.50;99.90;;;;;;5016720;28;20037;-58
2023/10/01 03:33:40;;;;;;;19.67;12.82;;;15.50;99.90;;;;;;5026385;28;20053;-59
2023/10/01 03:36:10;;;;;;;21.42;12.27;;;15.50;99.90;;;;;;5021186;28;20132;-59
2023/10/01 03:38:44;;;;;;;17.48;11.05;;;15.50;99.90;;;;;;5016784;28;20045;-58
2023/10/01 03:41:20;;;;;;;;;;;15.50;99.90;;;;;;5021883;28;20508;-58
2023/10/01 03:43:47;;;;;;;18.15;12.18;;;15.50;99.90;;;;;;5022677;28;19921;-59
2023/10/01 03:51:53;;;;;;;17.50;10.82;;;15.50;99.90;;;;;;4976054;28;20044;-58
2023/10/01 03:54:59;;;;;;;15.63;9.77;;;15.50;99.90;;;;;;5027047;28;20519;-59
2023/10/01 03:57:19;;;;;;;19.80;10.75;;;15.50;99.90;;;;;;5019034;28;20180;-58
2023/10/01 03:59:52;;;;;;;20.10;10.68;;;15.50;99.90;;;;;;5028943;28;20079;-58
2023/10/01 04:02:46;;;;;;;21.08;10.98;;;15.50;99.90;;;;;;5020493;28;20056;-58
2023/10/01 04:07:59;;;;;;;20.67;9.50;;;15.50;99.90;;;;;;5019266;28;20045;-59
2023/10/01 04:12:54;;;;;;;17.85;10.13;;;15.50;99.90;;;;;;5019592;28;20045;-58
2023/10/01 04:15:27;;;;;;;18.50;9.70;;;15.60;99.90;;;;;;5020258;28;20045;-58
2023/10/01 04:21:12;;;;;;;16.35;9.65;;;15.60;99.90;;;;;;5018798;28;20056;-58
2023/10/01 04:23:48;;;;;;;13.75;9.82;;;15.60;99.90;;;;;;5024334;28;20493;-57
2023/10/01 04:26:19;;;;;;;13.30;9.02;;;15.60;99.90;;;;;;5024685;28;20069;-58
2023/10/01 04:28:47;;;;;;;16.10;9.25;;;15.60;99.90;;;;;;5021873;28;20499;-57
2023/10/01 04:31:19;;;;;;;20.48;9.65;;;15.60;99.90;;;;;;5010552;28;20045;-59
2023/10/01 04:33:52;;;;;;;15.85;9.35;;;15.60;99.90;;;;;;5029474;28;20049;-58
2023/10/01 04:36:20;;;;;;;23.00;9.65;;;15.60;99.90;;;;;;5020902;28;21385;-58
2023/10/01 04:38:48;;;;;;;17.48;9.20;;;15.60;99.90;;;;;;5004512;28;20049;-57
2023/10/01 04:41:18;;;;;;;18.52;8.88;;;15.60;99.90;;;;;;5023302;28;20075;-58
2023/10/01 04:44:06;;;;;;;15.32;8.63;;;15.60;99.90;;;;;;5018665;28;20496;-58
2023/10/01 04:46:40;;;;;;;21.05;9.98;;;15.60;99.90;;;;;;5017451;28;20052;-57
2023/10/01 04:49:31;;;;;;;17.15;9.75;;;15.60;99.90;;;;;;5026195;28;20043;-58
2023/10/01 04:52:00;;;;;;;15.90;9.20;;;15.60;99.90;;;;;;5026569;28;20041;-58
2023/10/01 04:54:28;;;;;;;17.23;9.70;;;15.60;99.90;;;;;;5018058;28;20048;-59
2023/10/01 04:56:57;;;;;;;18.00;10.43;;;15.60;99.90;;;;;;5001393;28;20133;-59
2023/10/01 04:59:24;;;;;;;20.30;9.57;;;15.60;99.90;;;;;;5021969;28;20095;-58
2023/10/01 05:01:56;;;;;;;16.73;9.52;;;15.60;99.90;;;;;;5019149;28;20056;-59
2023/10/01 05:04:30;;;;;;;20.27;10.07;;;15.60;99.90;;;;;;5039858;28;20385;-57
2023/10/01 05:07:04;;;;;;;17.08;9.77;;;15.60;99.90;;;;;;5017699;28;20516;-58
2023/10/01 05:09:33;;;;;;;20.27;10.23;;;15.60;99.90;;;;;;5003337;28;21348;-57
2023/10/01 05:12:01;;;;;;;18.02;8.85;;;15.60;99.90;;;;;;5018661;28;20077;-58
2023/10/01 05:14:27;;;;;;;20.27;9.23;;;15.60;99.90;;;;;;5039800;28;20277;-59
2023/10/01 05:16:54;;;;;;;17.85;10.05;;;15.60;99.90;;;;;;5005618;28;20055;-58
2023/10/01 05:19:23;;;;;;;19.60;10.52;;;15.60;99.90;;;;;;5022364;28;21592;-58
2023/10/01 05:21:50;;;;;;;18.58;9.75;;;15.60;99.90;;;;;;5037998;28;20037;-58
2023/10/01 05:24:35;;;;;;;23.15;10.52;;;15.50;99.90;;;;;;5020445;28;20297;-59
2023/10/01 05:27:09;;;;;;;15.45;9.60;;;15.60;99.90;;;;;;5023188;28;20041;-58
2023/10/01 05:29:42;;;;;;;17.25;9.18;;;15.50;99.90;;;;;;5040741;28;20033;-58
2023/10/01 05:32:10;;;;;;;22.33;10.43;;;15.50;99.90;;;;;;5021002;28;20553;-58
2023/10/01 05:34:38;;;;;;;17.77;10.30;;;15.50;99.90;;;;;;5022230;28;20041;-58
2023/10/01 05:37:12;;;;;;;17.70;9.85;;;15.50;99.90;;;;;;5019891;28;20103;-59
2023/10/01 05:42:28;;;;;;;18.33;10.02;;;15.50;99.90;;;;;;5039506;28;20097;-58
2023/10/01 05:44:59;;;;;;;17.58;9.80;;;15.40;99.90;;;;;;5023161;28;20407;-57
2023/10/01 05:50:11;;;;;;;22.83;11.32;;;15.40;99.90;;;;;;5030254;28;20523;-58
2023/10/01 05:52:40;;;;;;;17.35;10.00;;;15.40;99.90;;;;;;5027800;28;20044;-58
2023/10/01 05:55:12;;;;;;;18.17;9.60;;;15.40;99.90;;;;;;5022795;28;20124;-59
2023/10/01 05:57:42;;;;;;;16.15;10.48;;;15.30;99.90;;;;;;5026948;28;20049;-58
2023/10/01 06:00:18;;;;;;;15.77;9.88;;;15.30;99.90;;;;;;5026010;28;20045;-59
2023/10/01 06:02:48;;;;;;;15.90;9.80;;;15.30;99.90;;;;;;5024695;28;20037;-59
2023/10/01 06:05:25;;;;;;;19.73;9.70;;;15.40;99.90;;;;;;5027602;28;20044;-57
2023/10/01 06:07:55;;;;;;;21.42;10.75;;;15.40;99.90;;;;;;5022583;28;20033;-59
2023/10/01 06:10:26;;;;;;;22.50;10.73;;;15.30;99.90;;;;;;5024559;28;20103;-59
2023/10/01 06:12:56;;;;;;;18.70;10.25;;;15.30;99.90;;;;;;5017798;28;20056;-59
2023/10/01 06:15:29;;;;;;;18.55;10.63;;;15.40;99.90;;;;;;5032381;28;20044;-58
2023/10/01 06:17:55;;;;;;;20.75;10.73;;;15.40;99.90;;;;;;5027641;28;20055;-58
2023/10/01 06:20:26;;;;;;;17.23;9.77;;;15.40;99.90;;;;;;5025246;28;20303;-58
2023/10/01 06:22:53;;;;;;;22.13;11.30;;;15.40;99.90;;;;;;5020501;28;20052;-59
2023/10/01 06:25:37;;;;;;;16.15;10.00;;;15.40;99.90;;;;;;5008154;28;20124;-59
2023/10/01 06:28:17;;;;;;;;;;;15.50;99.90;;;;;;5019560;28;20034;-59
2023/10/01 06:30:43;;;;;;;16.23;9.80;;;15.50;99.90;;;;;;5024034;28;20024;-58
2023/10/01 06:33:24;;;;;;;17.80;9.05;;;15.50;99.90;;;;;;5023924;28;20824;-59
2023/10/01 06:38:44;;;;;;;18.95;10.15;;;15.50;99.90;;;;;;5022619;28;20044;-58
2023/10/01 06:41:25;;;;;;;27.40;11.40;;;15.50;99.90;;;;;;5021289;28;20041;-58
2023/10/01 06:43:55;;;;;;;21.65;10.20;;;15.50;99.90;;;;;;5020550;28;20044;-58
2023/10/01 06:46:28;;;;;;;20.42;9.80;;;15.50;99.90;;;;;;5026363;28;20041;-58
2023/10/01 06:48:56;;;;;;;22.83;10.15;;;15.60;99.90;;;;;;5022008;28;20052;-58
2023/10/01 06:51:24;;;;;;;20.23;9.20;;;15.60;99.90;;;;;;5024883;28;20057;-59
2023/10/01 06:54:05;;;;;;;24.05;10.48;;;15.60;99.90;;;;;;5034067;28;20055;-58
2023/10/01 06:56:33;;;;;;;17.88;8.98;;;15.70;99.90;;;;;;5035668;28;20040;-58
2023/10/01 07:01:34;;;;;;;19.45;10.23;;;15.70;99.90;;;;;;5018318;28;20123;-58
2023/10/01 07:04:02;;;;;;;17.98;8.80;;;15.80;99.90;;;;;;5005477;28;20044;-58
2023/10/01 07:06:29;;;;;;;23.40;9.45;;;15.80;99.90;;;;;;5011301;28;20050;-57
2023/10/01 07:08:55;;;;;;;17.55;8.45;;;15.80;99.90;;;;;;5020496;28;20045;-59
2023/10/01 07:11:21;;;;;;;17.40;9.90;;;15.80;99.90;;;;;;5006568;28;20037;-59
2023/10/01 07:13:52;;;;;;;16.77;9.25;;;15.80;99.90;;;;;;5019286;28;20462;-59
2023/10/01 07:16:35;;;;;;;17.48;9.73;;;15.80;99.90;;;;;;5006253;28;20036;-58
2023/10/01 07:19:04;;;;;;;13.38;8.60;;;15.80;99.90;;;;;;5019442;28;20037;-58
2023/10/01 07:21:33;;;;;;;15.95;7.38;;;15.80;99.90;;;;;;5004170;28;20395;-58
2023/10/01 07:24:00;;;;;;;19.88;8.38;;;15.80;99.90;;;;;;5019160;28;20045;-58
2023/10/01 07:26:28;;;;;;;13.30;7.47;;;15.80;99.90;;;;;;5022312;28;20045;-59
2023/10/01 07:28:59;;;;;;;18.10;9.35;;;15.80;99.90;;;;;;5021154;28;20765;-57
2023/10/01 07:31:25;;;;;;;14.23;7.95;;;15.80;99.90;;;;;;5017530;28;20558;-58
2023/10/01 07:33:55;;;;;;;18.60;8.98;;;15.90;99.90;;;;;;5021961;28;20049;-58
2023/10/01 07:36:23;;;;;;;13.68;7.93;;;15.90;99.90;;;;;;5023630;28;20068;-58
2023/10/01 07:38:52;;;;;;;17.67;8.68;;;15.90;99.90;;;;;;5006018;28;20041;-58
2023/10/01 07:41:20;;;;;;;19.60;8.70;;;15.90;99.90;;;;;;5022439;28;20094;-59
2023/10/01 07:43:46;;;;;;;15.18;7.72;;;15.90;99.90;;;;;;5005577;28;20463;-58
2023/10/01 07:46:14;;;;;;;16.42;8.23;;;15.90;99.90;;;;;;5016541;28;20423;-58
2023/10/01 07:48:46;;;;;;;15.70;9.02;;;15.90;99.90;;;;;;5026678;28;20436;-58
2023/10/01 07:51:35;;;;;;;17.15;8.30;;;16.00;99.90;;;;;;5010366;28;20040;-58
2023/10/01 07:54:11;;;;;;;19.42;7.88;;;15.90;99.90;;;;;;5021335;28;20617;-57
2023/10/01 07:56:48;;;;;;;14.02;7.60;;;15.90;99.90;;;;;;5025633;28;20072;-59
2023/10/01 07:59:28;;;;;;;15.80;8.13;;;16.00;99.90;;;;;;5011806;28;20166;-59
2023/10/01 08:02:08;;;;;;;17.50;7.70;;;16.00;99.90;;;;;;5023618;28;20447;-59
2023/10/01 08:07:22;;;;;;;19.10;8.50;;;16.00;99.90;;;;;;5018390;28;20488;-57
2023/10/01 08:09:52;;;;;;;16.65;9.00;;;16.00;99.90;;;;;;5024136;28;20419;-59
2023/10/01 08:12:29;;;;;;;17.73;8.23;;;16.10;99.90;;;;;;5021291;28;20432;-59
2023/10/01 08:17:43;;;;;;;18.63;8.18;;;16.20;99.90;;;;;;5020164;28;20032;-59
2023/10/01 08:20:31;;;;;;;18.48;8.18;;;16.30;99.90;;;;;;5027911;28;20183;-59
2023/10/01 08:23:12;;;;;;;14.57;7.40;;;16.30;99.90;;;;;;5022035;28;20045;-59
2023/10/01 08:25:42;;;;;;;21.42;8.20;;;16.40;99.90;;;;;;5023908;28;20048;-59
2023/10/01 08:30:43;;;;;;;22.00;9.38;;;16.60;99.90;;;;;;5021351;28;20045;-59
2023/10/01 08:38:37;;;;;;;17.27;8.80;;;17.00;99.90;;;;;;5022160;28;20485;-59
2023/10/01 08:41:06;;;;;;;22.55;9.27;;;17.10;99.90;;;;;;5027468;28;20098;-59
2023/10/01 08:43:35;;;;;;;20.65;8.52;;;17.30;99.90;;;;;;5040439;28;20188;-58
2023/10/01 08:46:15;;;;;;;19.85;9.00;;;17.50;99.90;;;;;;5020353;28;20079;-59
2023/10/01 08:48:42;;;;;;;19.95;9.77;;;17.60;99.90;;;;;;5020678;28;20167;-59
2023/10/01 08:51:11;;;;;;;19.15;8.23;;;17.70;99.90;;;;;;5005120;28;20061;-59
2023/10/01 08:53:43;;;;;;;21.20;10.20;;;17.90;99.90;;;;;;5036441;28;20049;-59
2023/10/01 08:56:17;;;;;;;18.58;8.57;;;17.90;99.90;;;;;;5018426;28;20052;-59
2023/10/01 08:58:49;;;;;;;17.95;8.98;;;18.00;99.90;;;;;;5017989;28;20049;-60
2023/10/01 09:01:19;;;;;;;20.38;9.02;;;18.10;99.90;;;;;;5020156;28;20091;-60
2023/10/01 09:03:49;;;;;;;24.88;9.38;;;18.30;99.90;;;;;;5006687;28;20036;-59
2023/10/01 09:06:24;;;;;;;17.10;8.75;;;18.40;99.90;;;;;;5018234;28;20073;-59
2023/10/01 09:08:59;;;;;;;19.67;9.60;;;18.40;99.90;;;;;;5020400;28;20128;-59
2023/10/01 09:11:35;;;;;;;18.67;9.52;;;18.50;99.90;;;;;;5021998;28;20045;-59
2023/10/01 09:14:17;;;;;;;18.00;9.63;;;18.60;99.90;;;;;;5002789;28;20073;-59
2023/10/01 09:16:45;;;;;;;23.70;9.20;;;18.70;99.90;;;;;;5025824;28;20455;-59
2023/10/01 09:19:31;;;;;;;19.83;8.98;;;18.70;99.90;;;;;;5026375;28;20051;-59
2023/10/01 09:22:09;;;;;;;19.42;9.43;;;18.70;99.90;;;;;;5029203;28;20051;-59
2023/10/01 09:24:38;;;;;;;20.83;9.27;;;18.70;99.90;;;;;;5021874;28;20041;-60
2023/10/01 09:27:41;;;;;;;20.60;9.40;;;18.70;99.90;;;;;;5024008;28;20037;-58
2023/10/01 09:30:26;;;;;;;18.55;9.43;;;18.70;99.90;;;;;;5020684;28;20037;-59
2023/10/01 09:32:54;;;;;;;19.90;8.38;;;18.70;99.90;;;;;;5021214;28;20564;-58
2023/10/01 09:35:30;;;;;;;17.80;8.93;;;18.90;99.90;;;;;;5023775;28;20076;-59
2023/10/01 09:38:11;;;;;;;19.60;8.52;;;18.90;99.90;;;;;;5015698;28;20044;-59
2023/10/01 09:40:47;;;;;;;21.83;8.90;;;18.90;99.90;;;;;;5021135;28;20045;-58
2023/10/01 09:43:18;;;;;;;16.90;8.88;;;18.80;99.90;;;;;;5029723;28;20049;-59
2023/10/01 09:45:46;;;;;;;20.73;9.35;;;18.70;99.90;;;;;;5012254;28;20043;-59
2023/10/01 09:48:29;;;;;;;19.23;9.52;;;18.80;99.90;;;;;;5013118;28;20488;-59
2023/10/01 09:51:14;;;;;;;16.88;8.40;;;18.80;99.90;;;;;;5026299;28;20516;-59
2023/10/01 09:54:00;;;;;;;19.08;8.25;;;18.80;99.90;;;;;;5028323;28;20121;-59
2023/10/01 09:56:27;;;;;;;23.35;9.65;;;19.00;99.90;;;;;;5029092;28;20045;-59
2023/10/01 09:59:08;;;;;;;24.00;9.15;;;19.20;99.90;;;;;;5026897;28;20090;-58
2023/10/01 10:01:36;;;;;;;20.50;9.27;;;19.30;99.90;;;;;;5025620;28;20048;-58
2023/10/01 10:04:20;;;;;;;18.52;8.45;;;19.40;99.90;;;;;;5023918;28;20126;-58
2023/10/01 10:06:59;;;;;;;18.88;8.48;;;19.60;99.90;;;;;;5022518;28;20301;-58
2023/10/01 10:09:26;;;;;;;21.67;9.65;;;19.70;99.90;;;;;;5026661;28;20184;-59
2023/10/01 10:11:53;;;;;;;22.33;9.50;;;19.70;99.90;;;;;;5029737;28;20098;-58
2023/10/01 10:14:25;;;;;;;17.80;9.75;;;19.70;99.90;;;;;;5027789;28;20049;-59
2023/10/01 10:16:56;;;;;;;18.48;9.13;;;19.70;99.90;;;;;;5034435;28;20052;-59
2023/10/01 10:19:23;;;;;;;16.92;9.73;;;19.70;99.90;;;;;;5024504;28;20075;-60
2023/10/01 10:22:16;;;;;;;17.60;9.55;;;19.70;99.90;;;;;;5029962;28;20053;-59
2023/10/01 10:24:48;;;;;;;19.48;9.23;;;19.60;99.90;;;;;;5030004;28;20302;-59
2023/10/01 10:27:34;;;;;;;19.77;9.90;;;19.50;99.90;;;;;;5020203;28;20041;-59
2023/10/01 10:30:05;;;;;;;18.33;9.27;;;19.50;99.90;;;;;;5019139;28;20432;-59
2023/10/01 10:32:44;;;;;;;19.23;9.18;;;19.40;99.90;;;;;;5038420;28;20116;-59
2023/10/01 10:35:16;;;;;;;19.33;9.30;;;19.40;99.90;;;;;;5022308;28;20095;-59
2023/10/01 10:37:52;;;;;;;20.67;8.82;;;19.40;99.90;;;;;;5020533;28;20123;-59
2023/10/01 10:42:57;;;;;;;18.58;9.93;;;19.40;99.90;;;;;;5027009;28;20052;-59
2023/10/01 10:45:29;;;;;;;25.50;10.50;;;19.50;99.90;;;;;;5027331;28;20439;-59
2023/10/01 10:47:59;;;;;;;17.90;9.23;;;19.60;99.90;;;;;;5023032;28;20065;-59
2023/10/01 10:50:48;;;;;;;20.77;9.75;;;19.80;99.90;;;;;;5021556;28;20045;-59
2023/10/01 10:53:22;;;;;;;20.60;9.30;;;20.00;99.90;;;;;;5023478;28;20053;-59
2023/10/01 10:56:15;;;;;;;19.98;9.52;;;20.10;99.90;;;;;;5022280;28;20063;-59
2023/10/01 10:59:13;;;;;;;17.60;8.57;;;20.20;99.90;;;;;;5015846;28;20449;-59
2023/10/01 11:01:46;;;;;;;20.30;8.68;;;20.30;99.90;;;;;;5024148;28;20092;-59
2023/10/01 11:04:14;;;;;;;18.20;9.93;;;20.40;99.90;;;;;;5027444;28;20053;-59
2023/10/01 11:06:42;;;;;;;20.27;9.32;;;20.40;99.90;;;;;;5025934;28;20041;-59
2023/10/01 11:09:27;;;;;;;17.10;9.43;;;20.40;99.90;;;;;;5020082;28;20381;-59
2023/10/01 11:12:18;;;;;;;17.13;9.55;;;20.40;99.90;;;;;;5021793;28;20132;-59
2023/10/01 11:14:55;;;;;;;18.48;9.75;;;20.40;99.90;;;;;;5026388;28;20076;-58
2023/10/01 11:17:22;;;;;;;16.48;9.13;;;20.40;99.90;;;;;;5025267;28;20060;-58
2023/10/01 11:19:48;;;;;;;16.42;8.93;;;20.40;99.90;;;;;;5023150;28;20053;-58
2023/10/01 11:22:14;;;;;;;18.88;9.48;;;20.40;99.90;;;;;;5017076;28;20045;-59
2023/10/01 11:24:41;;;;;;;20.42;10.70;;;20.50;99.90;;;;;;5023140;28;20087;-59
2023/10/01 11:27:43;;;;;;;18.45;10.07;;;20.50;99.90;;;;;;5022311;28;20838;-59
2023/10/01 11:30:12;;;;;;;19.50;10.23;;;20.50;99.90;;;;;;5019716;28;20388;-59
2023/10/01 11:32:58;;;;;;;16.70;9.43;;;20.50;99.90;;;;;;5002557;28;20051;-58
2023/10/01 11:36:09;;;;;;;18.63;10.02;;;20.60;99.90;;;;;;5037916;28;20044;-59
2023/10/01 11:38:38;;;;;;;18.95;10.07;;;20.60;99.90;;;;;;5026652;28;20583;-59
2023/10/01 11:41:09;;;;;;;20.52;9.88;;;20.60;99.90;;;;;;5020319;28;20098;-59
2023/10/01 11:44:02;;;;;;;19.00;10.55;;;20.60;99.90;;;;;;5022710;28;20084;-59
2023/10/01 11:46:34;;;;;;;15.52;9.07;;;20.70;99.90;;;;;;5023821;28;20037;-58
2023/10/01 11:49:06;;;;;;;20.75;10.20;;;20.70;99.90;;;;;;5032629;28;20120;-59
2023/10/01 11:51:45;;;;;;;18.05;9.55;;;20.70;99.90;;;;;;5023396;28;20041;-59
2023/10/01 11:54:21;;;;;;;21.90;10.07;;;20.80;99.90;;;;;;5024910;28;20142;-59
2023/10/01 11:57:04;;;;;;;17.30;9.40;;;20.90;99.90;;;;;;5019035;28;20567;-59
2023/10/01 11:59:31;;;;;;;22.33;10.70;;;20.90;99.90;;;;;;5000384;28;20049;-59
2023/10/01 12:02:15;;;;;;;20.33;10.18;;;21.00;99.90;;;;;;5024057;28;20052;-59
2023/10/01 12:04:44;;;;;;;;;;;20.90;99.90;;;;;;5025596;28;20084;-59
2023/10/01 12:07:17;;;;;;;18.92;9.63;;;20.90;99.90;;;;;;5011156;28;19972;-59
2023/10/01 12:09:52;;;;;;;23.85;10.88;;;21.00;99.90;;;;;;5010696;28;20116;-56
2023/10/01 12:12:25;;;;;;;18.55;10.30;;;21.10;99.90;;;;;;5014315;28;20095;-56
2023/10/01 12:17:36;;;;;;;23.63;11.20;;;21.40;99.90;;;;;;5014959;28;20048;-59
2023/10/01 12:20:03;;;;;;;22.95;11.40;;;21.40;99.90;;;;;;5013052;28;20058;-59
2023/10/01 12:22:30;;;;;;;23.23;10.25;;;21.40;99.90;;;;;;5004682;28;20077;-59
2023/10/01 12:24:59;;;;;;;17.67;10.40;;;21.50;99.90;;;;;;5015476;28;20055;-59
2023/10/01 12:27:41;;;;;;;19.30;9.32;;;21.20;99.90;;;;;;5037854;28;20038;-59
2023/10/01 12:30:27;;;;;;;18.15;9.30;;;21.20;99.90;;;;;;5016683;28;20029;-58
2023/10/01 12:33:02;;;;;;;18.45;9.63;;;21.20;99.90;;;;;;5017398;28;20040;-59
2023/10/01 12:35:28;;;;;;;19.00;9.65;;;21.20;99.90;;;;;;5020972;28;20064;-59
2023/10/01 12:38:23;;;;;;;16.25;10.18;;;21.20;99.90;;;;;;5016083;28;20037;-59
2023/10/01 12:40:52;;;;;;;20.70;10.65;;;21.20;99.90;;;;;;5017887;28;20057;-59
2023/10/01 12:43:38;;;;;;;18.63;9.75;;;21.10;99.90;;;;;;5017019;28;20509;-59
2023/10/01 12:46:08;;;;;;;20.83;10.20;;;21.10;99.90;;;;;;5025926;28;20041;-59
2023/10/01 12:48:35;;;;;;;20.20;10.32;;;21.10;99.90;;;;;;5020928;28;20465;-59
2023/10/01 12:51:03;;;;;;;21.40;11.40;;;21.20;99.90;;;;;;5011945;28;20493;-59
2023/10/01 12:53:50;;;;;;;19.45;10.32;;;21.20;99.90;;;;;;5024020;28;20036;-59
2023/10/01 12:56:43;;;;;;;22.55;10.55;;;21.20;99.90;;;;;;5010826;28;20587;-59
2023/10/01 12:59:08;;;;;;;20.05;9.65;;;21.20;99.90;;;;;;5020017;28;20051;-59
2023/10/01 13:01:35;;;;;;;20.50;10.68;;;21.30;99.90;;;;;;5029648;28;20044;-58
2023/10/01 13:07:03;;;;;;;18.58;9.50;;;21.50;99.90;;;;;;4983236;28;20041;-59
2023/10/01 13:10:05;;;;;;;16.95;9.27;;;21.60;99.90;;;;;;5021957;28;20075;-59
2023/10/01 13:12:25;;;;;;;18.48;10.15;;;21.70;99.90;;;;;;5020080;28;20057;-59
2023/10/01 13:17:43;;;;;;;18.92;11.18;;;21.70;99.90;;;;;;5028999;28;20052;-59
2023/10/01 13:20:23;;;;;;;18.13;10.20;;;21.80;99.90;;;;;;5031780;28;20049;-58
2023/10/01 13:22:51;;;;;;;22.73;10.95;;;21.90;99.90;;;;;;5027975;28;20175;-58
2023/10/01 13:25:23;;;;;;;18.95;9.95;;;21.90;99.90;;;;;;5028565;28;20504;-59
2023/10/01 13:28:04;;;;;;;19.15;11.23;;;21.90;99.90;;;;;;5028226;28;20039;-59
2023/10/01 13:33:53;;;;;;;19.67;10.55;;;21.90;99.90;;;;;;4977722;28;20423;-57
2023/10/01 13:36:23;;;;;;;23.38;10.85;;;21.80;99.90;;;;;;5029110;28;20530;-59
2023/10/01 13:39:14;;;;;;;18.45;10.73;;;21.70;99.90;;;;;;5023981;28;20045;-59
2023/10/01 14:08:53;;;;;;;19.15;9.07;;;21.50;99.90;;;;;;5002714;28;20037;-58
2023/10/01 14:11:26;;;;;;;20.30;9.93;;;21.60;99.90;;;;;;5008589;28;20037;-58
2023/10/01 14:13:53;;;;;;;16.98;9.55;;;21.60;99.90;;;;;;5019117;28;20452;-59
2023/10/01 14:16:22;;;;;;;18.88;10.07;;;21.60;99.90;;;;;;5021162;28;20045;-60
2023/10/01 14:18:57;;;;;;;18.83;9.00;;;21.50;99.90;;;;;;5017821;28;20079;-58
2023/10/01 14:21:25;;;;;;;16.67;8.63;;;21.50;99.90;;;;;;5020950;28;20052;-59
2023/10/01 14:23:51;;;;;;;19.75;8.88;;;21.50;99.90;;;;;;5025294;28;20045;-58
2023/10/01 14:26:35;;;;;;;18.55;8.45;;;21.50;99.90;;;;;;5024965;28;20531;-59
2023/10/01 14:29:05;;;;;;;16.80;7.93;;;21.60;99.90;;;;;;5026335;28;20500;-58
2023/10/01 14:31:41;;;;;;;20.55;9.25;;;21.60;99.90;;;;;;5011061;28;20052;-59
2023/10/01 14:34:08;;;;;;;20.98;9.85;;;21.50;99.90;;;;;;5045964;28;20044;-59